sensor_id;sensor_type;location;lat;lon;timestamp;P1;durP1;ratioP1;P2;durP2;ratioP2
31848;SDS011;18414;59.352;18.152;2022-12-18T00:04:18;14.63;;;7.20;;
31848;SDS011;18414;59.352;18.152;2022-12-18T00:06:46;14.17;;;7.67;;
31848;SDS011;18414;59.352;18.152;2022-12-18T00:09:11;11.03;;;6.87;;
31848;SDS011;18414;59.352;18.152;2022-12-18T00:11:36;10.83;;;6.73;;
31848;SDS011;18414;59.352;18.152;2022-12-18T00:14:02;12.63;;;7.13;;
31848;SDS011;18414;59.352;18.152;2022-12-18T00:16:27;11.93;;;6.87;;
31848;SDS011;18414;59.352;18.152;2022-12-18T00:18:55;12.87;;;7.87;;
31848;SDS011;18414;59.352;18.152;2022-12-18T00:21:23;12.97;;;7.27;;
31848;SDS011;18414;59.352;18.152;2022-12-18T00:23:50;13.70;;;6.90;;
31848;SDS011;18414;59.352;18.152;2022-12-18T00:26:21;12.17;;;6.90;;
31848;SDS011;18414;59.352;18.152;2022-12-18T00:28:48;12.43;;;6.80;;
31848;SDS011;18414;59.352;18.152;2022-12-18T00:31:15;9.73;;;6.40;;
31848;SDS011;18414;59.352;18.152;2022-12-18T00:33:42;12.60;;;7.20;;
31848;SDS011;18414;59.352;18.152;2022-12-18T00:36:14;12.53;;;7.10;;
31848;SDS011;18414;59.352;18.152;2022-12-18T00:38:43;10.87;;;6.03;;
31848;SDS011;18414;59.352;18.152;2022-12-18T00:41:09;12.60;;;6.77;;
31848;SDS011;18414;59.352;18.152;2022-12-18T00:43:36;13.27;;;7.43;;
31848;SDS011;18414;59.352;18.152;2022-12-18T00:46:02;12.53;;;7.10;;
31848;SDS011;18414;59.352;18.152;2022-12-18T00:48:28;10.70;;;6.30;;
31848;SDS011;18414;59.352;18.152;2022-12-18T00:50:53;7.70;;;5.40;;
31848;SDS011;18414;59.352;18.152;2022-12-18T00:53:19;13.53;;;7.00;;
31848;SDS011;18414;59.352;18.152;2022-12-18T00:55:44;12.97;;;6.70;;
31848;SDS011;18414;59.352;18.152;2022-12-18T00:58:10;9.10;;;6.13;;
31848;SDS011;18414;59.352;18.152;2022-12-18T01:00:36;10.27;;;6.47;;
31848;SDS011;18414;59.352;18.152;2022-12-18T01:03:03;12.70;;;6.27;;
31848;SDS011;18414;59.352;18.152;2022-12-18T01:05:28;11.17;;;6.40;;
31848;SDS011;18414;59.352;18.152;2022-12-18T01:07:54;10.10;;;6.00;;
31848;SDS011;18414;59.352;18.152;2022-12-18T01:10:20;10.83;;;6.47;;
31848;SDS011;18414;59.352;18.152;2022-12-18T01:12:46;12.33;;;6.97;;
31848;SDS011;18414;59.352;18.152;2022-12-18T01:15:12;12.83;;;7.10;;
31848;SDS011;18414;59.352;18.152;2022-12-18T01:17:38;10.23;;;6.33;;
31848;SDS011;18414;59.352;18.152;2022-12-18T01:20:04;10.93;;;6.30;;
31848;SDS011;18414;59.352;18.152;2022-12-18T01:22:30;15.23;;;7.40;;
31848;SDS011;18414;59.352;18.152;2022-12-18T01:24:55;10.70;;;6.53;;
31848;SDS011;18414;59.352;18.152;2022-12-18T01:27:21;12.13;;;6.70;;
31848;SDS011;18414;59.352;18.152;2022-12-18T01:29:46;11.63;;;7.27;;
31848;SDS011;18414;59.352;18.152;2022-12-18T01:32:12;10.97;;;6.63;;
31848;SDS011;18414;59.352;18.152;2022-12-18T01:34:37;12.10;;;6.57;;
31848;SDS011;18414;59.352;18.152;2022-12-18T01:37:04;10.97;;;6.70;;
31848;SDS011;18414;59.352;18.152;2022-12-18T01:39:30;13.80;;;8.13;;
31848;SDS011;18414;59.352;18.152;2022-12-18T01:41:56;12.63;;;7.20;;
31848;SDS011;18414;59.352;18.152;2022-12-18T01:50:11;13.80;;;7.03;;
31848;SDS011;18414;59.352;18.152;2022-12-18T01:52:38;11.80;;;7.00;;
31848;SDS011;18414;59.352;18.152;2022-12-18T01:55:06;10.33;;;6.87;;
31848;SDS011;18414;59.352;18.152;2022-12-18T01:57:33;10.77;;;6.23;;
31848;SDS011;18414;59.352;18.152;2022-12-18T01:59:59;12.37;;;6.73;;
31848;SDS011;18414;59.352;18.152;2022-12-18T02:02:28;13.23;;;7.27;;
31848;SDS011;18414;59.352;18.152;2022-12-18T02:04:54;11.97;;;7.37;;
31848;SDS011;18414;59.352;18.152;2022-12-18T02:07:23;12.63;;;6.93;;
31848;SDS011;18414;59.352;18.152;2022-12-18T02:09:55;12.57;;;7.10;;
31848;SDS011;18414;59.352;18.152;2022-12-18T02:12:32;11.43;;;6.70;;
31848;SDS011;18414;59.352;18.152;2022-12-18T02:15:18;17.37;;;6.97;;
31848;SDS011;18414;59.352;18.152;2022-12-18T02:18:07;12.37;;;7.23;;
31848;SDS011;18414;59.352;18.152;2022-12-18T02:20:54;9.67;;;6.57;;
31848;SDS011;18414;59.352;18.152;2022-12-18T02:26:30;12.80;;;7.37;;
31848;SDS011;18414;59.352;18.152;2022-12-18T02:29:08;11.10;;;6.93;;
31848;SDS011;18414;59.352;18.152;2022-12-18T02:31:42;10.80;;;6.73;;
31848;SDS011;18414;59.352;18.152;2022-12-18T02:34:10;12.60;;;7.00;;
31848;SDS011;18414;59.352;18.152;2022-12-18T02:36:37;10.80;;;7.07;;
31848;SDS011;18414;59.352;18.152;2022-12-18T02:39:04;9.37;;;6.37;;
31848;SDS011;18414;59.352;18.152;2022-12-18T02:41:30;11.17;;;6.90;;
31848;SDS011;18414;59.352;18.152;2022-12-18T02:43:57;11.07;;;6.93;;
31848;SDS011;18414;59.352;18.152;2022-12-18T02:46:36;12.57;;;7.23;;
31848;SDS011;18414;59.352;18.152;2022-12-18T02:51:47;12.20;;;6.60;;
31848;SDS011;18414;59.352;18.152;2022-12-18T02:57:43;12.20;;;6.80;;
31848;SDS011;18414;59.352;18.152;2022-12-18T03:02:59;10.97;;;6.90;;
31848;SDS011;18414;59.352;18.152;2022-12-18T03:05:33;11.07;;;7.20;;
31848;SDS011;18414;59.352;18.152;2022-12-18T03:08:10;17.00;;;6.83;;
31848;SDS011;18414;59.352;18.152;2022-12-18T03:10:40;10.73;;;6.37;;
31848;SDS011;18414;59.352;18.152;2022-12-18T03:13:09;12.63;;;6.67;;
31848;SDS011;18414;59.352;18.152;2022-12-18T03:15:43;9.43;;;6.67;;
31848;SDS011;18414;59.352;18.152;2022-12-18T03:18:12;10.00;;;6.50;;
31848;SDS011;18414;59.352;18.152;2022-12-18T03:20:43;9.70;;;6.23;;
31848;SDS011;18414;59.352;18.152;2022-12-18T03:23:11;11.40;;;6.60;;
31848;SDS011;18414;59.352;18.152;2022-12-18T03:25:39;10.07;;;6.27;;
31848;SDS011;18414;59.352;18.152;2022-12-18T03:28:08;9.33;;;5.90;;
31848;SDS011;18414;59.352;18.152;2022-12-18T03:30:35;8.17;;;5.50;;
31848;SDS011;18414;59.352;18.152;2022-12-18T03:33:07;8.63;;;5.83;;
31848;SDS011;18414;59.352;18.152;2022-12-18T03:35:37;8.33;;;6.03;;
31848;SDS011;18414;59.352;18.152;2022-12-18T03:38:05;9.83;;;5.73;;
31848;SDS011;18414;59.352;18.152;2022-12-18T03:40:35;8.37;;;5.60;;
31848;SDS011;18414;59.352;18.152;2022-12-18T03:43:13;8.97;;;5.90;;
31848;SDS011;18414;59.352;18.152;2022-12-18T03:45:48;9.73;;;6.03;;
31848;SDS011;18414;59.352;18.152;2022-12-18T03:48:19;10.00;;;5.90;;
31848;SDS011;18414;59.352;18.152;2022-12-18T03:50:59;9.60;;;5.77;;
31848;SDS011;18414;59.352;18.152;2022-12-18T03:56:08;8.87;;;5.23;;
31848;SDS011;18414;59.352;18.152;2022-12-18T03:58:35;11.20;;;6.10;;
31848;SDS011;18414;59.352;18.152;2022-12-18T04:01:02;9.30;;;5.23;;
31848;SDS011;18414;59.352;18.152;2022-12-18T04:03:29;8.90;;;5.60;;
31848;SDS011;18414;59.352;18.152;2022-12-18T04:05:56;8.53;;;5.37;;
31848;SDS011;18414;59.352;18.152;2022-12-18T04:08:23;9.67;;;5.93;;
31848;SDS011;18414;59.352;18.152;2022-12-18T04:10:49;11.93;;;5.40;;
31848;SDS011;18414;59.352;18.152;2022-12-18T04:13:21;10.73;;;6.40;;
31848;SDS011;18414;59.352;18.152;2022-12-18T04:15:54;13.07;;;6.07;;
31848;SDS011;18414;59.352;18.152;2022-12-18T04:18:19;11.63;;;5.60;;
31848;SDS011;18414;59.352;18.152;2022-12-18T04:20:45;8.90;;;5.70;;
31848;SDS011;18414;59.352;18.152;2022-12-18T04:23:10;10.00;;;5.80;;
31848;SDS011;18414;59.352;18.152;2022-12-18T04:25:35;10.97;;;5.63;;
31848;SDS011;18414;59.352;18.152;2022-12-18T04:28:01;9.47;;;5.50;;
31848;SDS011;18414;59.352;18.152;2022-12-18T04:30:26;8.27;;;5.73;;
31848;SDS011;18414;59.352;18.152;2022-12-18T04:32:51;10.47;;;5.80;;
31848;SDS011;18414;59.352;18.152;2022-12-18T04:35:17;9.23;;;5.90;;
31848;SDS011;18414;59.352;18.152;2022-12-18T04:37:42;8.73;;;6.30;;
31848;SDS011;18414;59.352;18.152;2022-12-18T04:40:09;9.50;;;6.07;;
31848;SDS011;18414;59.352;18.152;2022-12-18T04:42:35;10.60;;;6.43;;
31848;SDS011;18414;59.352;18.152;2022-12-18T04:45:00;9.53;;;5.70;;
31848;SDS011;18414;59.352;18.152;2022-12-18T04:47:27;9.40;;;6.30;;
31848;SDS011;18414;59.352;18.152;2022-12-18T04:49:55;10.80;;;6.60;;
31848;SDS011;18414;59.352;18.152;2022-12-18T04:52:21;10.30;;;5.93;;
31848;SDS011;18414;59.352;18.152;2022-12-18T04:54:46;9.03;;;5.60;;
31848;SDS011;18414;59.352;18.152;2022-12-18T04:57:11;8.57;;;5.43;;
31848;SDS011;18414;59.352;18.152;2022-12-18T04:59:37;11.73;;;5.50;;
31848;SDS011;18414;59.352;18.152;2022-12-18T05:02:02;9.67;;;5.70;;
31848;SDS011;18414;59.352;18.152;2022-12-18T05:04:27;8.23;;;5.60;;
31848;SDS011;18414;59.352;18.152;2022-12-18T05:06:53;8.10;;;5.37;;
31848;SDS011;18414;59.352;18.152;2022-12-18T05:09:18;9.57;;;5.87;;
31848;SDS011;18414;59.352;18.152;2022-12-18T05:11:43;7.93;;;5.60;;
31848;SDS011;18414;59.352;18.152;2022-12-18T05:14:11;7.70;;;5.23;;
31848;SDS011;18414;59.352;18.152;2022-12-18T05:16:36;11.43;;;6.10;;
31848;SDS011;18414;59.352;18.152;2022-12-18T05:19:02;9.23;;;5.33;;
31848;SDS011;18414;59.352;18.152;2022-12-18T05:21:28;9.87;;;6.00;;
31848;SDS011;18414;59.352;18.152;2022-12-18T05:23:53;10.43;;;5.77;;
31848;SDS011;18414;59.352;18.152;2022-12-18T05:26:19;8.30;;;5.63;;
31848;SDS011;18414;59.352;18.152;2022-12-18T05:28:45;9.27;;;6.03;;
31848;SDS011;18414;59.352;18.152;2022-12-18T05:31:11;9.17;;;6.00;;
31848;SDS011;18414;59.352;18.152;2022-12-18T05:33:36;10.47;;;6.00;;
31848;SDS011;18414;59.352;18.152;2022-12-18T05:36:02;8.87;;;6.13;;
31848;SDS011;18414;59.352;18.152;2022-12-18T05:38:29;8.07;;;5.83;;
31848;SDS011;18414;59.352;18.152;2022-12-18T05:40:56;10.00;;;6.03;;
31848;SDS011;18414;59.352;18.152;2022-12-18T05:43:22;9.63;;;5.90;;
31848;SDS011;18414;59.352;18.152;2022-12-18T05:45:48;9.07;;;5.80;;
31848;SDS011;18414;59.352;18.152;2022-12-18T05:48:14;10.80;;;5.33;;
31848;SDS011;18414;59.352;18.152;2022-12-18T05:50:41;10.37;;;5.87;;
31848;SDS011;18414;59.352;18.152;2022-12-18T05:53:08;9.50;;;5.90;;
31848;SDS011;18414;59.352;18.152;2022-12-18T05:55:34;10.17;;;5.83;;
31848;SDS011;18414;59.352;18.152;2022-12-18T05:58:01;9.93;;;5.80;;
31848;SDS011;18414;59.352;18.152;2022-12-18T06:00:28;10.73;;;5.40;;
31848;SDS011;18414;59.352;18.152;2022-12-18T06:02:54;8.47;;;5.37;;
31848;SDS011;18414;59.352;18.152;2022-12-18T06:05:19;9.47;;;5.70;;
31848;SDS011;18414;59.352;18.152;2022-12-18T06:07:44;9.67;;;5.90;;
31848;SDS011;18414;59.352;18.152;2022-12-18T06:10:10;8.00;;;5.20;;
31848;SDS011;18414;59.352;18.152;2022-12-18T06:12:35;9.70;;;5.80;;
31848;SDS011;18414;59.352;18.152;2022-12-18T06:15:02;10.10;;;6.27;;
31848;SDS011;18414;59.352;18.152;2022-12-18T06:17:31;12.17;;;5.60;;
31848;SDS011;18414;59.352;18.152;2022-12-18T06:19:59;8.90;;;5.37;;
31848;SDS011;18414;59.352;18.152;2022-12-18T06:22:24;9.20;;;5.70;;
31848;SDS011;18414;59.352;18.152;2022-12-18T06:24:51;7.43;;;5.00;;
31848;SDS011;18414;59.352;18.152;2022-12-18T06:27:16;9.57;;;6.27;;
31848;SDS011;18414;59.352;18.152;2022-12-18T06:29:41;9.03;;;5.50;;
31848;SDS011;18414;59.352;18.152;2022-12-18T06:32:07;8.93;;;4.97;;
31848;SDS011;18414;59.352;18.152;2022-12-18T06:34:33;8.30;;;5.10;;
31848;SDS011;18414;59.352;18.152;2022-12-18T06:36:59;9.63;;;5.43;;
31848;SDS011;18414;59.352;18.152;2022-12-18T06:39:26;9.13;;;5.27;;
31848;SDS011;18414;59.352;18.152;2022-12-18T06:41:52;8.67;;;5.23;;
31848;SDS011;18414;59.352;18.152;2022-12-18T06:44:17;8.63;;;5.40;;
31848;SDS011;18414;59.352;18.152;2022-12-18T06:46:43;10.60;;;5.80;;
31848;SDS011;18414;59.352;18.152;2022-12-18T06:49:10;9.67;;;5.70;;
31848;SDS011;18414;59.352;18.152;2022-12-18T06:51:35;9.33;;;5.90;;
31848;SDS011;18414;59.352;18.152;2022-12-18T06:54:01;9.80;;;5.67;;
31848;SDS011;18414;59.352;18.152;2022-12-18T06:56:26;10.20;;;5.47;;
31848;SDS011;18414;59.352;18.152;2022-12-18T06:58:51;10.10;;;5.90;;
31848;SDS011;18414;59.352;18.152;2022-12-18T07:01:17;8.93;;;5.73;;
31848;SDS011;18414;59.352;18.152;2022-12-18T07:03:42;9.50;;;5.87;;
31848;SDS011;18414;59.352;18.152;2022-12-18T07:06:15;8.90;;;5.87;;
31848;SDS011;18414;59.352;18.152;2022-12-18T07:08:41;9.23;;;5.87;;
31848;SDS011;18414;59.352;18.152;2022-12-18T07:11:07;10.13;;;6.20;;
31848;SDS011;18414;59.352;18.152;2022-12-18T07:13:32;12.63;;;6.03;;
31848;SDS011;18414;59.352;18.152;2022-12-18T07:16:32;10.03;;;5.77;;
31848;SDS011;18414;59.352;18.152;2022-12-18T07:18:51;8.87;;;5.73;;
31848;SDS011;18414;59.352;18.152;2022-12-18T07:21:18;10.23;;;5.73;;
31848;SDS011;18414;59.352;18.152;2022-12-18T07:23:44;10.70;;;5.97;;
31848;SDS011;18414;59.352;18.152;2022-12-18T07:26:12;10.00;;;6.07;;
31848;SDS011;18414;59.352;18.152;2022-12-18T07:28:39;10.17;;;6.17;;
31848;SDS011;18414;59.352;18.152;2022-12-18T07:31:06;10.27;;;6.03;;
31848;SDS011;18414;59.352;18.152;2022-12-18T07:33:33;10.53;;;5.80;;
31848;SDS011;18414;59.352;18.152;2022-12-18T07:36:02;10.33;;;6.30;;
31848;SDS011;18414;59.352;18.152;2022-12-18T07:38:30;10.10;;;5.90;;
31848;SDS011;18414;59.352;18.152;2022-12-18T07:41:02;11.67;;;6.47;;
31848;SDS011;18414;59.352;18.152;2022-12-18T07:43:32;10.33;;;6.47;;
31848;SDS011;18414;59.352;18.152;2022-12-18T07:45:58;10.03;;;6.00;;
31848;SDS011;18414;59.352;18.152;2022-12-18T07:48:23;10.50;;;6.50;;
31848;SDS011;18414;59.352;18.152;2022-12-18T07:50:49;11.33;;;6.47;;
31848;SDS011;18414;59.352;18.152;2022-12-18T07:53:15;9.77;;;6.30;;
31848;SDS011;18414;59.352;18.152;2022-12-18T07:55:41;11.17;;;6.63;;
31848;SDS011;18414;59.352;18.152;2022-12-18T07:58:07;11.90;;;6.67;;
31848;SDS011;18414;59.352;18.152;2022-12-18T08:00:33;12.80;;;6.70;;
31848;SDS011;18414;59.352;18.152;2022-12-18T08:02:59;10.57;;;6.83;;
31848;SDS011;18414;59.352;18.152;2022-12-18T08:05:24;14.40;;;6.70;;
31848;SDS011;18414;59.352;18.152;2022-12-18T08:07:50;14.20;;;6.63;;
31848;SDS011;18414;59.352;18.152;2022-12-18T08:10:15;12.70;;;6.87;;
31848;SDS011;18414;59.352;18.152;2022-12-18T08:12:42;11.97;;;6.77;;
31848;SDS011;18414;59.352;18.152;2022-12-18T08:15:08;10.40;;;6.53;;
31848;SDS011;18414;59.352;18.152;2022-12-18T08:17:33;11.60;;;7.20;;
31848;SDS011;18414;59.352;18.152;2022-12-18T08:20:00;11.63;;;6.97;;
31848;SDS011;18414;59.352;18.152;2022-12-18T08:22:25;13.30;;;6.60;;
31848;SDS011;18414;59.352;18.152;2022-12-18T08:24:50;10.47;;;6.80;;
31848;SDS011;18414;59.352;18.152;2022-12-18T08:27:17;13.33;;;6.63;;
31848;SDS011;18414;59.352;18.152;2022-12-18T08:29:43;11.03;;;7.00;;
31848;SDS011;18414;59.352;18.152;2022-12-18T08:32:09;10.87;;;6.63;;
31848;SDS011;18414;59.352;18.152;2022-12-18T08:34:35;9.83;;;6.33;;
31848;SDS011;18414;59.352;18.152;2022-12-18T08:37:00;12.77;;;7.13;;
31848;SDS011;18414;59.352;18.152;2022-12-18T08:39:25;13.23;;;6.90;;
31848;SDS011;18414;59.352;18.152;2022-12-18T08:41:51;13.93;;;7.47;;
31848;SDS011;18414;59.352;18.152;2022-12-18T08:44:42;15.47;;;7.17;;
31848;SDS011;18414;59.352;18.152;2022-12-18T08:47:08;11.40;;;7.33;;
31848;SDS011;18414;59.352;18.152;2022-12-18T08:49:34;16.73;;;7.33;;
31848;SDS011;18414;59.352;18.152;2022-12-18T08:52:00;10.53;;;7.50;;
31848;SDS011;18414;59.352;18.152;2022-12-18T08:54:27;12.07;;;7.03;;
31848;SDS011;18414;59.352;18.152;2022-12-18T08:56:53;14.53;;;6.77;;
31848;SDS011;18414;59.352;18.152;2022-12-18T08:59:19;13.87;;;7.20;;
31848;SDS011;18414;59.352;18.152;2022-12-18T09:01:44;11.73;;;7.00;;
31848;SDS011;18414;59.352;18.152;2022-12-18T09:04:10;12.50;;;6.67;;
31848;SDS011;18414;59.352;18.152;2022-12-18T09:06:36;10.70;;;7.00;;
31848;SDS011;18414;59.352;18.152;2022-12-18T09:09:02;11.00;;;6.87;;
31848;SDS011;18414;59.352;18.152;2022-12-18T09:11:28;11.33;;;6.83;;
31848;SDS011;18414;59.352;18.152;2022-12-18T09:13:55;12.27;;;7.30;;
31848;SDS011;18414;59.352;18.152;2022-12-18T09:16:21;11.97;;;6.60;;
31848;SDS011;18414;59.352;18.152;2022-12-18T09:18:47;12.50;;;7.20;;
31848;SDS011;18414;59.352;18.152;2022-12-18T09:21:15;11.03;;;6.67;;
31848;SDS011;18414;59.352;18.152;2022-12-18T09:23:43;11.90;;;6.77;;
31848;SDS011;18414;59.352;18.152;2022-12-18T09:26:09;10.53;;;7.03;;
31848;SDS011;18414;59.352;18.152;2022-12-18T09:28:35;12.37;;;7.43;;
31848;SDS011;18414;59.352;18.152;2022-12-18T09:31:03;12.63;;;6.83;;
31848;SDS011;18414;59.352;18.152;2022-12-18T09:33:31;10.90;;;6.70;;
31848;SDS011;18414;59.352;18.152;2022-12-18T09:35:56;12.37;;;6.23;;
31848;SDS011;18414;59.352;18.152;2022-12-18T09:38:22;11.73;;;6.60;;
31848;SDS011;18414;59.352;18.152;2022-12-18T09:40:49;9.97;;;6.70;;
31848;SDS011;18414;59.352;18.152;2022-12-18T09:43:18;11.00;;;6.80;;
31848;SDS011;18414;59.352;18.152;2022-12-18T09:45:46;10.40;;;6.17;;
31848;SDS011;18414;59.352;18.152;2022-12-18T09:51:13;11.17;;;6.33;;
31848;SDS011;18414;59.352;18.152;2022-12-18T09:53:42;10.77;;;6.30;;
31848;SDS011;18414;59.352;18.152;2022-12-18T09:56:16;11.57;;;6.60;;
31848;SDS011;18414;59.352;18.152;2022-12-18T09:58:48;8.27;;;5.63;;
31848;SDS011;18414;59.352;18.152;2022-12-18T10:01:21;11.17;;;6.27;;
31848;SDS011;18414;59.352;18.152;2022-12-18T10:03:47;11.67;;;6.27;;
31848;SDS011;18414;59.352;18.152;2022-12-18T10:08:41;14.17;;;6.93;;
31848;SDS011;18414;59.352;18.152;2022-12-18T10:14:09;11.47;;;6.00;;
31848;SDS011;18414;59.352;18.152;2022-12-18T10:16:49;9.57;;;5.97;;
31848;SDS011;18414;59.352;18.152;2022-12-18T10:19:41;10.37;;;5.80;;
31848;SDS011;18414;59.352;18.152;2022-12-18T10:27:47;8.93;;;5.90;;
31848;SDS011;18414;59.352;18.152;2022-12-18T10:30:14;9.20;;;6.07;;
31848;SDS011;18414;59.352;18.152;2022-12-18T10:32:41;12.90;;;6.67;;
31848;SDS011;18414;59.352;18.152;2022-12-18T10:35:08;10.03;;;6.13;;
31848;SDS011;18414;59.352;18.152;2022-12-18T10:37:58;10.57;;;6.50;;
31848;SDS011;18414;59.352;18.152;2022-12-18T10:43:36;8.90;;;5.93;;
31848;SDS011;18414;59.352;18.152;2022-12-18T10:51:18;11.30;;;6.20;;
31848;SDS011;18414;59.352;18.152;2022-12-18T10:53:50;7.93;;;6.17;;
31848;SDS011;18414;59.352;18.152;2022-12-18T10:56:19;9.00;;;5.73;;
31848;SDS011;18414;59.352;18.152;2022-12-18T10:58:46;9.70;;;6.07;;
31848;SDS011;18414;59.352;18.152;2022-12-18T11:01:21;10.80;;;6.60;;
31848;SDS011;18414;59.352;18.152;2022-12-18T11:08:43;8.97;;;5.87;;
31848;SDS011;18414;59.352;18.152;2022-12-18T11:11:23;10.40;;;6.07;;
31848;SDS011;18414;59.352;18.152;2022-12-18T11:14:41;8.73;;;6.50;;
31848;SDS011;18414;59.352;18.152;2022-12-18T11:16:45;10.37;;;6.63;;
31848;SDS011;18414;59.352;18.152;2022-12-18T11:19:14;10.23;;;6.37;;
31848;SDS011;18414;59.352;18.152;2022-12-18T11:21:45;10.07;;;6.07;;
31848;SDS011;18414;59.352;18.152;2022-12-18T11:24:25;13.37;;;6.63;;
31848;SDS011;18414;59.352;18.152;2022-12-18T11:26:54;9.50;;;6.60;;
31848;SDS011;18414;59.352;18.152;2022-12-18T11:29:24;9.47;;;6.37;;
31848;SDS011;18414;59.352;18.152;2022-12-18T11:34:48;10.77;;;6.80;;
31848;SDS011;18414;59.352;18.152;2022-12-18T11:37:16;10.80;;;6.27;;
31848;SDS011;18414;59.352;18.152;2022-12-18T11:39:52;11.40;;;6.30;;
31848;SDS011;18414;59.352;18.152;2022-12-18T11:42:27;9.90;;;5.70;;
31848;SDS011;18414;59.352;18.152;2022-12-18T11:45:03;12.73;;;6.57;;
31848;SDS011;18414;59.352;18.152;2022-12-18T11:47:52;8.87;;;5.33;;
31848;SDS011;18414;59.352;18.152;2022-12-18T11:50:24;10.37;;;6.17;;
31848;SDS011;18414;59.352;18.152;2022-12-18T11:52:51;7.67;;;5.50;;
31848;SDS011;18414;59.352;18.152;2022-12-18T11:55:28;9.63;;;5.87;;
31848;SDS011;18414;59.352;18.152;2022-12-18T11:58:09;11.23;;;5.93;;
31848;SDS011;18414;59.352;18.152;2022-12-18T12:00:40;9.47;;;5.87;;
31848;SDS011;18414;59.352;18.152;2022-12-18T12:03:20;8.70;;;5.40;;
31848;SDS011;18414;59.352;18.152;2022-12-18T12:11:35;9.23;;;5.33;;
31848;SDS011;18414;59.352;18.152;2022-12-18T12:14:14;9.63;;;5.57;;
31848;SDS011;18414;59.352;18.152;2022-12-18T12:22:38;9.67;;;5.60;;
31848;SDS011;18414;59.352;18.152;2022-12-18T12:25:33;8.80;;;5.50;;
31848;SDS011;18414;59.352;18.152;2022-12-18T12:36:15;9.13;;;5.57;;
31848;SDS011;18414;59.352;18.152;2022-12-18T12:38:45;10.13;;;5.93;;
31848;SDS011;18414;59.352;18.152;2022-12-18T12:41:16;9.57;;;5.70;;
31848;SDS011;18414;59.352;18.152;2022-12-18T12:44:03;9.03;;;5.37;;
31848;SDS011;18414;59.352;18.152;2022-12-18T12:46:32;10.83;;;5.63;;
31848;SDS011;18414;59.352;18.152;2022-12-18T12:49:03;8.63;;;5.83;;
31848;SDS011;18414;59.352;18.152;2022-12-18T12:51:34;12.60;;;5.97;;
31848;SDS011;18414;59.352;18.152;2022-12-18T12:54:04;8.90;;;5.87;;
31848;SDS011;18414;59.352;18.152;2022-12-18T13:07:39;10.83;;;5.60;;
31848;SDS011;18414;59.352;18.152;2022-12-18T13:18:02;10.47;;;5.97;;
31848;SDS011;18414;59.352;18.152;2022-12-18T13:20:33;10.97;;;6.37;;
31848;SDS011;18414;59.352;18.152;2022-12-18T13:25:53;13.20;;;5.73;;
31848;SDS011;18414;59.352;18.152;2022-12-18T13:31:12;10.57;;;6.03;;
31848;SDS011;18414;59.352;18.152;2022-12-18T13:33:43;10.13;;;5.63;;
31848;SDS011;18414;59.352;18.152;2022-12-18T13:36:16;10.37;;;5.50;;
31848;SDS011;18414;59.352;18.152;2022-12-18T13:41:35;11.37;;;5.17;;
31848;SDS011;18414;59.352;18.152;2022-12-18T13:44:10;8.40;;;4.97;;
31848;SDS011;18414;59.352;18.152;2022-12-18T13:46:54;9.17;;;5.07;;
31848;SDS011;18414;59.352;18.152;2022-12-18T13:51:51;11.70;;;4.60;;
31848;SDS011;18414;59.352;18.152;2022-12-18T13:54:33;7.77;;;4.50;;
31848;SDS011;18414;59.352;18.152;2022-12-18T13:57:00;9.00;;;5.13;;
31848;SDS011;18414;59.352;18.152;2022-12-18T13:59:32;7.53;;;4.40;;
31848;SDS011;18414;59.352;18.152;2022-12-18T14:02:13;11.17;;;4.90;;
31848;SDS011;18414;59.352;18.152;2022-12-18T14:04:40;9.90;;;4.70;;
31848;SDS011;18414;59.352;18.152;2022-12-18T14:07:13;11.50;;;4.53;;
31848;SDS011;18414;59.352;18.152;2022-12-18T14:09:42;9.93;;;4.83;;
31848;SDS011;18414;59.352;18.152;2022-12-18T14:12:18;8.63;;;4.67;;
31848;SDS011;18414;59.352;18.152;2022-12-18T14:15:05;6.60;;;4.50;;
31848;SDS011;18414;59.352;18.152;2022-12-18T14:17:32;9.67;;;4.53;;
31848;SDS011;18414;59.352;18.152;2022-12-18T14:19:58;7.53;;;4.17;;
31848;SDS011;18414;59.352;18.152;2022-12-18T14:22:25;7.47;;;4.27;;
31848;SDS011;18414;59.352;18.152;2022-12-18T14:27:52;8.13;;;4.73;;
31848;SDS011;18414;59.352;18.152;2022-12-18T14:35:56;7.43;;;4.20;;
31848;SDS011;18414;59.352;18.152;2022-12-18T14:41:02;8.97;;;4.50;;
31848;SDS011;18414;59.352;18.152;2022-12-18T14:43:39;9.60;;;4.40;;
31848;SDS011;18414;59.352;18.152;2022-12-18T14:46:28;7.93;;;4.10;;
31848;SDS011;18414;59.352;18.152;2022-12-18T14:48:55;8.53;;;4.17;;
31848;SDS011;18414;59.352;18.152;2022-12-18T14:51:22;6.57;;;3.73;;
31848;SDS011;18414;59.352;18.152;2022-12-18T14:53:55;8.47;;;3.80;;
31848;SDS011;18414;59.352;18.152;2022-12-18T14:56:22;8.17;;;3.70;;
31848;SDS011;18414;59.352;18.152;2022-12-18T14:58:56;6.67;;;3.77;;
31848;SDS011;18414;59.352;18.152;2022-12-18T15:01:25;9.07;;;3.83;;
31848;SDS011;18414;59.352;18.152;2022-12-18T15:03:53;8.17;;;3.77;;
31848;SDS011;18414;59.352;18.152;2022-12-18T15:06:37;9.83;;;3.90;;
31848;SDS011;18414;59.352;18.152;2022-12-18T15:09:20;7.90;;;3.70;;
31848;SDS011;18414;59.352;18.152;2022-12-18T15:11:48;6.63;;;3.03;;
31848;SDS011;18414;59.352;18.152;2022-12-18T15:14:24;7.93;;;3.13;;
31848;SDS011;18414;59.352;18.152;2022-12-18T15:16:57;5.23;;;3.40;;
31848;SDS011;18414;59.352;18.152;2022-12-18T15:19:25;7.97;;;3.47;;
31848;SDS011;18414;59.352;18.152;2022-12-18T15:22:18;5.60;;;2.87;;
31848;SDS011;18414;59.352;18.152;2022-12-18T15:24:46;5.63;;;3.10;;
31848;SDS011;18414;59.352;18.152;2022-12-18T15:27:25;6.83;;;3.10;;
31848;SDS011;18414;59.352;18.152;2022-12-18T15:32:27;7.10;;;3.50;;
31848;SDS011;18414;59.352;18.152;2022-12-18T15:37:49;6.03;;;2.87;;
31848;SDS011;18414;59.352;18.152;2022-12-18T15:40:19;5.40;;;2.70;;
31848;SDS011;18414;59.352;18.152;2022-12-18T15:42:46;6.07;;;2.80;;
31848;SDS011;18414;59.352;18.152;2022-12-18T15:45:31;6.30;;;2.90;;
31848;SDS011;18414;59.352;18.152;2022-12-18T15:47:57;6.13;;;2.30;;
31848;SDS011;18414;59.352;18.152;2022-12-18T15:50:23;5.13;;;2.50;;
31848;SDS011;18414;59.352;18.152;2022-12-18T15:52:50;8.60;;;3.00;;
31848;SDS011;18414;59.352;18.152;2022-12-18T15:55:17;8.93;;;3.00;;
31848;SDS011;18414;59.352;18.152;2022-12-18T15:58:03;7.90;;;2.87;;
31848;SDS011;18414;59.352;18.152;2022-12-18T16:00:30;6.33;;;2.47;;
31848;SDS011;18414;59.352;18.152;2022-12-18T16:02:56;9.37;;;2.53;;
31848;SDS011;18414;59.352;18.152;2022-12-18T16:05:22;3.93;;;2.30;;
31848;SDS011;18414;59.352;18.152;2022-12-18T16:07:48;9.47;;;2.60;;
31848;SDS011;18414;59.352;18.152;2022-12-18T16:10:13;4.40;;;2.33;;
31848;SDS011;18414;59.352;18.152;2022-12-18T16:12:39;7.43;;;2.87;;
31848;SDS011;18414;59.352;18.152;2022-12-18T16:15:05;6.73;;;2.20;;
31848;SDS011;18414;59.352;18.152;2022-12-18T16:17:30;10.87;;;2.60;;
31848;SDS011;18414;59.352;18.152;2022-12-18T16:19:56;6.70;;;2.30;;
31848;SDS011;18414;59.352;18.152;2022-12-18T16:22:28;6.50;;;2.60;;
31848;SDS011;18414;59.352;18.152;2022-12-18T16:24:55;4.87;;;2.50;;
31848;SDS011;18414;59.352;18.152;2022-12-18T16:27:21;7.20;;;2.43;;
31848;SDS011;18414;59.352;18.152;2022-12-18T16:29:47;6.40;;;2.20;;
31848;SDS011;18414;59.352;18.152;2022-12-18T16:32:17;7.97;;;2.47;;
31848;SDS011;18414;59.352;18.152;2022-12-18T16:34:44;6.03;;;2.40;;
31848;SDS011;18414;59.352;18.152;2022-12-18T16:37:11;5.30;;;2.30;;
31848;SDS011;18414;59.352;18.152;2022-12-18T16:39:37;4.77;;;2.30;;